createdAt,value
2016-10-20T00:00:00.695Z,27.21
2016-10-20T00:00:17.562Z,27.19
2016-10-20T00:00:34.301Z,27.16
2016-10-20T00:00:51.457Z,27.14
2016-10-20T00:01:08.236Z,27.29
2016-10-20T00:01:24.992Z,27.21
2016-10-20T00:01:41.734Z,27.35
2016-10-20T00:01:58.461Z,27.24
2016-10-20T00:02:15.257Z,27.26
2016-10-20T00:02:31.989Z,27.39
2016-10-20T00:02:48.739Z,27.32
2016-10-20T00:03:05.461Z,27.31
2016-10-20T00:03:22.185Z,27.39
2016-10-20T00:03:38.936Z,27.42
2016-10-20T00:03:55.689Z,27.36
2016-10-20T00:04:12.439Z,27.35
2016-10-20T00:04:29.202Z,27.39
2016-10-20T00:04:45.934Z,27.29
2016-10-20T00:05:02.737Z,27.23
2016-10-20T00:05:19.500Z,27.16
2016-10-20T00:05:36.223Z,27.19
2016-10-20T00:05:53.679Z,27.16
2016-10-20T00:06:11.164Z,27.19
2016-10-20T00:06:27.921Z,27.24
2016-10-20T00:06:44.667Z,27.29
2016-10-20T00:07:01.416Z,27.14
2016-10-20T00:07:18.203Z,27.09
2016-10-20T00:07:34.990Z,27.12
2016-10-20T00:07:51.759Z,27.01
2016-10-20T00:08:08.491Z,26.98
2016-10-20T00:08:25.227Z,26.98
2016-10-20T00:08:42.010Z,27.12
2016-10-20T00:08:58.772Z,27.01
2016-10-20T00:09:15.515Z,26.89
2016-10-20T00:09:32.777Z,26.86
2016-10-20T00:09:49.519Z,26.77
2016-10-20T00:10:06.785Z,26.71
2016-10-20T00:10:23.522Z,26.75
2016-10-20T00:10:40.265Z,26.69
2016-10-20T00:10:57.119Z,26.69
2016-10-20T00:11:13.868Z,26.68
2016-10-20T00:11:30.636Z,26.49
2016-10-20T00:11:47.397Z,26.62
2016-10-20T00:12:04.163Z,26.61
2016-10-20T00:12:20.919Z,26.49
2016-10-20T00:12:38.193Z,26.42
2016-10-20T00:12:54.916Z,26.53
2016-10-20T00:13:11.695Z,26.5
2016-10-20T00:13:28.439Z,26.46
2016-10-20T00:13:45.178Z,26.43
2016-10-20T00:14:01.943Z,26.38
2016-10-20T00:14:18.709Z,26.35
2016-10-20T00:14:35.437Z,26.45
2016-10-20T00:14:52.232Z,26.3
2016-10-20T00:15:08.974Z,26.34
2016-10-20T00:15:25.743Z,26.34
2016-10-20T00:15:42.537Z,26.24
2016-10-20T00:15:59.278Z,25.94
2016-10-20T00:16:16.043Z,26.09
2016-10-20T00:16:32.801Z,26.07
2016-10-20T00:16:49.577Z,25.97
2016-10-20T00:17:06.340Z,25.67
2016-10-20T00:17:23.090Z,25.7
2016-10-20T00:17:39.866Z,25.84
2016-10-20T00:17:56.627Z,25.55
2016-10-20T00:18:13.399Z,25.34
2016-10-20T00:18:30.152Z,25.5
2016-10-20T00:18:46.887Z,25.47
2016-10-20T00:19:03.640Z,25.53
2016-10-20T00:19:20.383Z,25.46
2016-10-20T00:19:37.133Z,25.41
2016-10-20T00:19:53.868Z,25.3
2016-10-20T00:20:10.872Z,25.12
2016-10-20T00:20:27.632Z,25.02
2016-10-20T00:20:44.444Z,25.19
2016-10-20T00:21:01.195Z,25.19
2016-10-20T00:21:17.951Z,25.08
2016-10-20T00:21:34.712Z,24.8
2016-10-20T00:21:51.489Z,24.9
2016-10-20T00:22:08.218Z,24.86
2016-10-20T00:22:24.983Z,24.86
2016-10-20T00:22:41.764Z,24.93
2016-10-20T00:22:58.495Z,24.91
2016-10-20T00:23:15.219Z,24.91
2016-10-20T00:23:31.973Z,24.88
2016-10-20T00:23:48.746Z,24.76
2016-10-20T00:24:05.504Z,24.88
2016-10-20T00:24:22.773Z,24.76
2016-10-20T00:24:39.546Z,24.76
2016-10-20T00:24:56.277Z,24.63
2016-10-20T00:25:13.039Z,24.57
2016-10-20T00:25:29.799Z,24.53
2016-10-20T00:25:46.593Z,24.76
2016-10-20T00:26:03.447Z,24.71
2016-10-20T00:26:20.209Z,24.76
2016-10-20T00:26:37.008Z,24.8
2016-10-20T00:26:53.744Z,24.62
2016-10-20T00:27:10.504Z,24.56
2016-10-20T00:27:27.262Z,24.73
2016-10-20T00:27:44.037Z,24.73
2016-10-20T00:28:00.801Z,24.71
2016-10-20T00:28:17.556Z,24.38
2016-10-20T00:28:34.278Z,24.56
2016-10-20T00:28:51.021Z,24.27
2016-10-20T00:29:07.778Z,24.2
2016-10-20T00:29:24.549Z,24.23
2016-10-20T00:29:41.287Z,24.19
2016-10-20T00:29:58.039Z,24.19
2016-10-20T00:30:29.276Z,24.15
2016-10-20T00:30:46.053Z,24.07
2016-10-20T00:31:02.900Z,24.02
2016-10-20T00:31:19.691Z,24.1
2016-10-20T00:31:36.457Z,24.04
2016-10-20T00:31:53.215Z,24.15
2016-10-20T00:32:09.953Z,24.2
2016-10-20T00:32:26.696Z,24.2
2016-10-20T00:32:43.427Z,24.08
2016-10-20T00:33:00.194Z,24.08
2016-10-20T00:33:16.958Z,24.11
2016-10-20T00:33:33.712Z,24.1
2016-10-20T00:33:50.480Z,24.2
2016-10-20T00:34:07.766Z,24.15
2016-10-20T00:34:24.534Z,24.1
2016-10-20T00:34:41.352Z,24.08
2016-10-20T00:34:58.102Z,24.08
2016-10-20T00:35:14.863Z,24.04
2016-10-20T00:35:31.607Z,24.1
2016-10-20T00:35:48.358Z,24
2016-10-20T00:36:05.141Z,23.95
2016-10-20T00:36:21.936Z,23.85
2016-10-20T00:36:38.691Z,23.75
2016-10-20T00:36:55.435Z,23.55
2016-10-20T00:37:12.233Z,23.61
2016-10-20T00:37:29.519Z,23.78
2016-10-20T00:37:46.279Z,23.71
2016-10-20T00:38:03.036Z,23.64
2016-10-20T00:38:19.795Z,23.49
2016-10-20T00:38:36.573Z,23.55
2016-10-20T00:38:53.345Z,23.5
2016-10-20T00:39:10.093Z,23.48
2016-10-20T00:39:26.832Z,23.34
2016-10-20T00:39:43.575Z,23.42
2016-10-20T00:40:00.330Z,23.4
2016-10-20T00:40:17.095Z,23.42
2016-10-20T00:40:33.881Z,23.52
2016-10-20T00:40:50.680Z,23.49
2016-10-20T00:41:07.557Z,23.45
2016-10-20T00:41:24.833Z,23.52
2016-10-20T00:41:41.606Z,23.4
2016-10-20T00:41:58.379Z,23.43
2016-10-20T00:42:15.148Z,23.35
2016-10-20T00:42:31.913Z,23.42
2016-10-20T00:42:48.664Z,23.35
2016-10-20T00:43:05.455Z,23.42
2016-10-20T00:43:22.211Z,23.35
2016-10-20T00:43:39.004Z,23.22
2016-10-20T00:43:55.735Z,23.4
2016-10-20T00:44:13.726Z,23.18
2016-10-20T00:44:30.497Z,23.38
2016-10-20T00:44:47.245Z,23.34
2016-10-20T00:45:04.514Z,23.08
2016-10-20T00:45:21.244Z,23.15
2016-10-20T00:45:37.986Z,23.27
2016-10-20T00:45:54.756Z,23.35
2016-10-20T00:46:11.502Z,23.26
2016-10-20T00:46:28.215Z,23.33
2016-10-20T00:46:44.962Z,23.35
2016-10-20T00:47:01.710Z,23.33
2016-10-20T00:47:18.443Z,23.31
2016-10-20T00:47:35.221Z,23.34
2016-10-20T00:47:51.941Z,23.27
2016-10-20T00:48:08.676Z,23.22
2016-10-20T00:48:25.432Z,23.31
2016-10-20T00:48:42.177Z,23.29
2016-10-20T00:48:58.901Z,23.29
2016-10-20T00:49:15.620Z,23.38
2016-10-20T00:49:32.348Z,23.38
2016-10-20T00:49:49.075Z,23.34
2016-10-20T00:50:05.796Z,23.33
2016-10-20T00:50:22.526Z,23.33
2016-10-20T00:50:39.225Z,23.33
2016-10-20T00:50:55.956Z,23.33
2016-10-20T00:51:12.689Z,23.37
2016-10-20T00:51:29.407Z,23.38
2016-10-20T00:51:46.154Z,23.4
2016-10-20T00:52:02.904Z,23.4
2016-10-20T00:52:19.623Z,23.43
2016-10-20T00:52:36.362Z,23.38
2016-10-20T00:52:53.067Z,23.46
2016-10-20T00:53:09.819Z,23.42
2016-10-20T00:53:26.514Z,23.52
2016-10-20T00:53:43.222Z,23.61
2016-10-20T00:53:59.954Z,23.48
2016-10-20T00:54:16.667Z,23.5
2016-10-20T00:54:33.380Z,23.53
2016-10-20T00:54:50.118Z,23.5
2016-10-20T00:55:06.887Z,23.52
2016-10-20T00:55:23.609Z,23.5
2016-10-20T00:55:40.304Z,23.45
2016-10-20T00:55:57.027Z,23.4
2016-10-20T00:56:13.865Z,23.43
2016-10-20T00:56:31.088Z,23.56
2016-10-20T00:56:47.815Z,23.58
2016-10-20T00:57:05.258Z,23.42
2016-10-20T00:57:22.021Z,23.34
2016-10-20T00:57:38.793Z,23.4
2016-10-20T00:57:55.495Z,23.34
2016-10-20T00:58:12.242Z,23.34
2016-10-20T00:58:28.972Z,23.35
2016-10-20T00:58:45.702Z,23.33
2016-10-20T00:59:02.437Z,23.31
2016-10-20T00:59:19.160Z,23.26
2016-10-20T00:59:35.857Z,23.33
2016-10-20T00:59:52.572Z,23.17
2016-10-20T01:00:09.283Z,23.33
2016-10-20T01:00:25.997Z,23.31
2016-10-20T01:00:42.722Z,23.09
2016-10-20T01:00:59.434Z,23.05
2016-10-20T01:01:16.288Z,23.09
2016-10-20T01:01:33.022Z,23.12
2016-10-20T01:01:49.742Z,23.08
2016-10-20T01:02:06.464Z,23.23
2016-10-20T01:02:23.216Z,23.24
2016-10-20T01:02:39.954Z,23.14
2016-10-20T01:02:56.666Z,23.22
2016-10-20T01:03:13.409Z,23.29
2016-10-20T01:03:30.159Z,23.31
2016-10-20T01:03:46.915Z,23.07
2016-10-20T01:04:03.680Z,23.09
2016-10-20T01:04:20.395Z,22.99
2016-10-20T01:04:37.143Z,22.96
2016-10-20T01:04:53.876Z,22.93
2016-10-20T01:05:10.584Z,23.05
2016-10-20T01:05:27.283Z,22.97
2016-10-20T01:05:43.996Z,23.05
2016-10-20T01:06:00.723Z,23
2016-10-20T01:06:17.469Z,22.99
2016-10-20T01:06:34.192Z,23.08
2016-10-20T01:06:50.933Z,23.07
2016-10-20T01:07:07.681Z,23.2
2016-10-20T01:07:24.404Z,23.14
2016-10-20T01:07:41.122Z,23.12
2016-10-20T01:07:57.833Z,23.18
2016-10-20T01:08:14.553Z,23.27
2016-10-20T01:08:31.300Z,23.17
2016-10-20T01:08:47.998Z,23.05
2016-10-20T01:09:04.728Z,23.12
2016-10-20T01:09:21.510Z,23.07
2016-10-20T01:09:38.267Z,23.09
2016-10-20T01:10:09.481Z,23.09
2016-10-20T01:10:26.222Z,23.08
2016-10-20T01:10:42.953Z,23.05
2016-10-20T01:10:59.675Z,22.97
2016-10-20T01:11:16.388Z,23.09
2016-10-20T01:11:33.116Z,23.09
2016-10-20T01:11:49.832Z,23.05
2016-10-20T01:12:06.600Z,23.11
2016-10-20T01:12:23.341Z,23.08
2016-10-20T01:12:40.064Z,23.14
2016-10-20T01:12:56.756Z,23.12
2016-10-20T01:13:13.455Z,23.17
2016-10-20T01:13:30.159Z,23.24
2016-10-20T01:13:46.871Z,23.22
2016-10-20T01:14:04.158Z,23.22
2016-10-20T01:14:20.878Z,23.22
2016-10-20T01:14:37.579Z,23.24
2016-10-20T01:14:54.291Z,23.18
2016-10-20T01:15:11.014Z,23.17
2016-10-20T01:15:27.791Z,23.26
2016-10-20T01:15:44.516Z,23.34
2016-10-20T01:16:01.277Z,23.04
2016-10-20T01:16:18.206Z,23.2
2016-10-20T01:16:34.914Z,23.33
2016-10-20T01:16:51.619Z,23.18
2016-10-20T01:17:08.333Z,23.27
2016-10-20T01:17:25.037Z,23.31
2016-10-20T01:17:41.749Z,23.23
2016-10-20T01:17:58.459Z,23.29
2016-10-20T01:18:15.214Z,23.29
2016-10-20T01:18:31.935Z,23.15
2016-10-20T01:18:48.674Z,23.02
2016-10-20T01:19:05.365Z,23.2
2016-10-20T01:19:22.070Z,23.24
2016-10-20T01:19:38.836Z,23.11
2016-10-20T01:19:55.665Z,23.05
2016-10-20T01:20:12.402Z,22.99
2016-10-20T01:20:29.149Z,22.92
2016-10-20T01:20:45.851Z,22.99
2016-10-20T01:21:02.598Z,23
2016-10-20T01:21:19.295Z,23
2016-10-20T01:21:36.074Z,23.08
2016-10-20T01:21:52.839Z,23.09
2016-10-20T01:22:09.549Z,23.05
2016-10-20T01:22:26.277Z,23.04
2016-10-20T01:22:43.736Z,23.07
2016-10-20T01:23:00.435Z,22.97
2016-10-20T01:23:17.156Z,22.96
2016-10-20T01:23:33.893Z,23.02
2016-10-20T01:23:50.597Z,23.05
2016-10-20T01:24:07.304Z,22.97
2016-10-20T01:24:24.028Z,23.07
2016-10-20T01:24:40.800Z,23.11
2016-10-20T01:24:57.551Z,22.94
2016-10-20T01:25:14.316Z,23.11
2016-10-20T01:25:31.571Z,22.99
2016-10-20T01:25:48.293Z,23.09
2016-10-20T01:26:05.008Z,23.09
2016-10-20T01:26:21.809Z,22.99
2016-10-20T01:26:38.577Z,23.08
2016-10-20T01:26:55.538Z,23.09
2016-10-20T01:27:12.248Z,23.09
2016-10-20T01:27:28.963Z,23.12
2016-10-20T01:27:45.694Z,23.08
2016-10-20T01:28:02.937Z,23.11
2016-10-20T01:28:19.643Z,23.12
2016-10-20T01:28:36.366Z,22.97
2016-10-20T01:28:53.084Z,22.96
2016-10-20T01:29:24.307Z,23
2016-10-20T01:29:41.035Z,23.05
2016-10-20T01:29:57.739Z,22.96
2016-10-20T01:30:14.479Z,22.99
2016-10-20T01:30:31.187Z,22.87
2016-10-20T01:30:47.904Z,22.89
2016-10-20T01:31:04.602Z,22.93
2016-10-20T01:31:21.306Z,23.04
2016-10-20T01:31:38.013Z,23.04
2016-10-20T01:31:54.742Z,22.9
2016-10-20T01:32:11.499Z,22.99
2016-10-20T01:32:28.239Z,22.97
2016-10-20T01:32:44.941Z,23.09
2016-10-20T01:33:01.688Z,23.11
2016-10-20T01:33:18.947Z,23.08
2016-10-20T01:33:35.754Z,23.11
2016-10-20T01:33:52.517Z,23.11
2016-10-20T01:34:09.310Z,23.12
2016-10-20T01:34:26.037Z,23.23
2016-10-20T01:34:42.753Z,23.23
2016-10-20T01:35:00.032Z,23.26
2016-10-20T01:35:16.759Z,23.09
2016-10-20T01:35:33.460Z,23.14
2016-10-20T01:35:50.170Z,23.15
2016-10-20T01:36:06.918Z,23.27
2016-10-20T01:36:23.642Z,23.2
2016-10-20T01:36:40.350Z,23.18
2016-10-20T01:36:57.070Z,23.09
2016-10-20T01:37:13.796Z,23.14
2016-10-20T01:37:30.503Z,23.22
2016-10-20T01:37:47.265Z,23.2
2016-10-20T01:38:03.985Z,23.2
2016-10-20T01:38:20.758Z,23.22
2016-10-20T01:38:37.472Z,23.22
2016-10-20T01:38:54.241Z,23.27
2016-10-20T01:39:10.953Z,23.15
2016-10-20T01:39:27.685Z,23.15
2016-10-20T01:39:44.412Z,23.26
2016-10-20T01:40:01.182Z,23.26
2016-10-20T01:40:17.923Z,23.31
2016-10-20T01:40:34.729Z,23.15
2016-10-20T01:40:51.476Z,23.22
2016-10-20T01:41:08.169Z,23.22
2016-10-20T01:41:25.011Z,23.2
2016-10-20T01:41:41.721Z,23.27
2016-10-20T01:41:58.619Z,23.24
2016-10-20T01:42:15.388Z,23.34
2016-10-20T01:42:32.158Z,23.35
2016-10-20T01:42:48.931Z,23.26
2016-10-20T01:43:05.659Z,23.37
2016-10-20T01:43:22.379Z,23.35
2016-10-20T01:43:39.141Z,23.37
2016-10-20T01:43:55.852Z,23.43
2016-10-20T01:44:12.580Z,23.43
2016-10-20T01:44:29.305Z,23.4
2016-10-20T01:44:46.046Z,23.37
2016-10-20T01:45:03.282Z,23.43
2016-10-20T01:45:19.984Z,23.12
2016-10-20T01:45:36.713Z,23.15
2016-10-20T01:45:53.443Z,23.24
2016-10-20T01:46:10.559Z,23.24
2016-10-20T01:46:27.616Z,23.14
2016-10-20T01:46:44.329Z,23.22
2016-10-20T01:47:01.046Z,23.22
2016-10-20T01:47:17.758Z,23.22
2016-10-20T01:47:34.487Z,23.26
2016-10-20T01:47:51.219Z,23.24
2016-10-20T01:48:07.938Z,23.22
2016-10-20T01:48:24.669Z,23.17
2016-10-20T01:48:41.367Z,23.22
2016-10-20T01:48:58.086Z,23.29
2016-10-20T01:49:14.814Z,23.26
2016-10-20T01:49:31.530Z,23.27
2016-10-20T01:49:48.253Z,23.29
2016-10-20T01:50:05.680Z,23.29
2016-10-20T01:50:22.459Z,23.31
2016-10-20T01:50:39.184Z,23.34
2016-10-20T01:50:55.912Z,23.24
2016-10-20T01:51:12.644Z,23.35
2016-10-20T01:51:29.460Z,23.35
2016-10-20T01:51:46.542Z,23.29
2016-10-20T01:52:03.279Z,23.33
2016-10-20T01:52:20.039Z,23.27
2016-10-20T01:52:36.816Z,23.29
2016-10-20T01:52:53.568Z,23.35
2016-10-20T01:53:10.265Z,23.26
2016-10-20T01:53:26.987Z,23.17
2016-10-20T01:53:43.723Z,23.14
2016-10-20T01:54:00.414Z,23.14
2016-10-20T01:54:17.143Z,23.15
2016-10-20T01:54:33.885Z,23.17
2016-10-20T01:54:51.329Z,23.24
2016-10-20T01:55:08.066Z,23.18
2016-10-20T01:55:24.802Z,23.2
2016-10-20T01:55:41.540Z,23.07
2016-10-20T01:55:58.264Z,23.27
2016-10-20T01:56:15.003Z,23.35
2016-10-20T01:56:31.818Z,23.29
2016-10-20T01:56:48.547Z,23.26
2016-10-20T01:57:05.323Z,23.26
2016-10-20T01:57:22.070Z,23.2
2016-10-20T01:57:38.806Z,23.24
2016-10-20T01:57:55.501Z,23.2
2016-10-20T01:58:12.218Z,23.29
2016-10-20T01:58:29.467Z,23.23
2016-10-20T01:58:46.165Z,23.31
2016-10-20T01:59:02.893Z,23.17
2016-10-20T01:59:19.707Z,23.22
2016-10-20T01:59:36.480Z,23.2
2016-10-20T01:59:53.196Z,22.97
2016-10-20T02:00:09.914Z,23.11
2016-10-20T02:00:26.649Z,23.17
2016-10-20T02:00:43.354Z,23.05
2016-10-20T02:01:00.294Z,23.12
2016-10-20T02:01:17.019Z,23.11
2016-10-20T02:01:33.932Z,23.15
2016-10-20T02:01:50.639Z,23.15
2016-10-20T02:02:07.370Z,23.22
2016-10-20T02:02:24.116Z,23.24
2016-10-20T02:02:40.829Z,23.11
2016-10-20T02:02:57.567Z,23.02
2016-10-20T02:03:14.312Z,23.09
2016-10-20T02:03:31.039Z,23.14
2016-10-20T02:03:47.796Z,23.05
2016-10-20T02:04:04.519Z,23.07
2016-10-20T02:04:21.242Z,23.09
2016-10-20T02:04:37.963Z,23.17
2016-10-20T02:04:54.679Z,23.18
2016-10-20T02:05:11.377Z,23.22
2016-10-20T02:05:28.088Z,23.24
2016-10-20T02:05:44.840Z,23.15
2016-10-20T02:06:01.536Z,23.24
2016-10-20T02:06:18.245Z,23.29
2016-10-20T02:06:35.060Z,23.26
2016-10-20T02:06:51.758Z,23.31
2016-10-20T02:07:08.511Z,23.33
2016-10-20T02:07:25.276Z,23.35
2016-10-20T02:07:42.744Z,23.31
2016-10-20T02:07:59.457Z,23.45
2016-10-20T02:08:16.193Z,23.35
2016-10-20T02:08:32.913Z,23.46
2016-10-20T02:08:49.622Z,23.38
2016-10-20T02:09:06.353Z,23.27
2016-10-20T02:09:23.053Z,23.33
2016-10-20T02:09:39.771Z,23.38
2016-10-20T02:09:56.472Z,23.31
2016-10-20T02:10:13.170Z,23.29
2016-10-20T02:10:29.886Z,23.35
2016-10-20T02:10:46.601Z,23.33
2016-10-20T02:11:03.287Z,23.35
2016-10-20T02:11:20.001Z,23.27
2016-10-20T02:11:36.829Z,23.35
2016-10-20T02:11:53.539Z,23.38
2016-10-20T02:12:10.758Z,23.43
2016-10-20T02:12:27.535Z,23.43
2016-10-20T02:12:44.231Z,23.4
2016-10-20T02:13:00.946Z,23.43
2016-10-20T02:13:17.674Z,23.35
2016-10-20T02:13:34.396Z,23.37
2016-10-20T02:13:51.116Z,23.38
2016-10-20T02:14:08.360Z,23.49
2016-10-20T02:14:25.074Z,23.43
2016-10-20T02:14:41.790Z,23.42
2016-10-20T02:14:58.505Z,23.23
2016-10-20T02:15:15.529Z,23.26
2016-10-20T02:15:32.246Z,23.07
2016-10-20T02:15:49.014Z,23.22
2016-10-20T02:16:05.767Z,23.17
2016-10-20T02:16:22.487Z,23.22
2016-10-20T02:16:39.180Z,23.2
2016-10-20T02:16:55.901Z,23.11
2016-10-20T02:17:12.713Z,22.94
2016-10-20T02:17:29.538Z,22.97
2016-10-20T02:17:46.251Z,22.96
2016-10-20T02:18:02.967Z,23.08
2016-10-20T02:18:19.687Z,22.99
2016-10-20T02:18:36.473Z,23.07
2016-10-20T02:18:53.226Z,23.09
2016-10-20T02:19:09.967Z,23.11
2016-10-20T02:19:26.744Z,22.97
2016-10-20T02:19:43.442Z,23.08
2016-10-20T02:20:00.171Z,23.11
2016-10-20T02:20:16.911Z,23.17
2016-10-20T02:20:33.628Z,23.22
2016-10-20T02:20:50.342Z,23.17
2016-10-20T02:21:07.042Z,23.24
2016-10-20T02:21:23.753Z,23.27
2016-10-20T02:21:40.494Z,23.31
2016-10-20T02:21:57.204Z,23.24
2016-10-20T02:22:13.921Z,23.34
2016-10-20T02:22:30.640Z,23.34
2016-10-20T02:22:47.343Z,23.37
2016-10-20T02:23:04.567Z,23.34
2016-10-20T02:23:21.288Z,23.31
2016-10-20T02:23:38.032Z,23.24
2016-10-20T02:23:54.736Z,23.34
2016-10-20T02:24:11.426Z,23.38
2016-10-20T02:24:28.136Z,23.33
2016-10-20T02:24:44.859Z,23.38
2016-10-20T02:25:02.115Z,23.37
2016-10-20T02:25:18.830Z,23.42
2016-10-20T02:25:35.587Z,23.26
2016-10-20T02:25:52.338Z,23.18
2016-10-20T02:26:09.065Z,23.18
2016-10-20T02:26:25.769Z,23
2016-10-20T02:26:43.595Z,23.12
2016-10-20T02:27:00.302Z,23.15
2016-10-20T02:27:17.048Z,23.09
2016-10-20T02:27:33.757Z,23.07
2016-10-20T02:27:50.483Z,22.9
2016-10-20T02:28:07.362Z,22.87
2016-10-20T02:28:24.401Z,22.9
2016-10-20T02:28:41.188Z,22.97
2016-10-20T02:28:57.894Z,23
2016-10-20T02:29:14.622Z,22.92
2016-10-20T02:29:31.341Z,22.92
2016-10-20T02:29:48.054Z,22.97
2016-10-20T02:30:04.814Z,22.94
2016-10-20T02:30:21.523Z,22.99
2016-10-20T02:30:38.743Z,23
2016-10-20T02:30:55.442Z,23.04
2016-10-20T02:31:12.159Z,22.99
2016-10-20T02:31:28.852Z,22.97
2016-10-20T02:31:45.771Z,23.07
2016-10-20T02:32:02.462Z,23.05
2016-10-20T02:32:19.159Z,23.09
2016-10-20T02:32:35.862Z,23.09
2016-10-20T02:32:52.574Z,23.07
2016-10-20T02:33:09.286Z,23.07
2016-10-20T02:33:25.993Z,23.04
2016-10-20T02:33:42.680Z,22.93
2016-10-20T02:33:59.388Z,23.02
2016-10-20T02:34:16.111Z,23.12
2016-10-20T02:34:32.836Z,23.12
2016-10-20T02:34:49.559Z,23.14
2016-10-20T02:35:06.255Z,23.15
2016-10-20T02:35:22.979Z,23.11
2016-10-20T02:35:39.681Z,23.05
2016-10-20T02:35:56.402Z,23.12
2016-10-20T02:36:13.106Z,23.24
2016-10-20T02:36:29.879Z,23.22
2016-10-20T02:36:46.820Z,23.14
2016-10-20T02:37:03.560Z,23.14
2016-10-20T02:37:20.258Z,23.14
2016-10-20T02:37:36.987Z,23.09
2016-10-20T02:37:53.675Z,23.11
2016-10-20T02:38:10.412Z,23.09
2016-10-20T02:38:27.204Z,23.07
2016-10-20T02:38:43.914Z,23.15
2016-10-20T02:39:00.639Z,23.04
2016-10-20T02:39:17.369Z,23.14
2016-10-20T02:39:34.604Z,23.09
2016-10-20T02:39:51.826Z,22.97
2016-10-20T02:40:08.534Z,23.14
2016-10-20T02:40:25.253Z,23.07
2016-10-20T02:40:42.853Z,22.99
2016-10-20T02:40:59.586Z,23
2016-10-20T02:41:16.810Z,23.05
2016-10-20T02:41:33.505Z,23.09
2016-10-20T02:41:50.301Z,23.07
2016-10-20T02:42:07.032Z,23.07
2016-10-20T02:42:23.737Z,23.11
2016-10-20T02:42:40.451Z,23.08
2016-10-20T02:42:57.170Z,23.17
2016-10-20T02:43:13.872Z,23.15
2016-10-20T02:43:30.617Z,23.22
2016-10-20T02:43:47.336Z,23.24
2016-10-20T02:44:04.050Z,23.22
2016-10-20T02:44:20.783Z,23.14
2016-10-20T02:44:37.545Z,23.09
2016-10-20T02:44:54.238Z,23.09
2016-10-20T02:45:10.962Z,23.22
2016-10-20T02:45:27.695Z,23.2
2016-10-20T02:45:44.421Z,23.23
2016-10-20T02:46:01.355Z,23.22
2016-10-20T02:46:18.067Z,23.24
2016-10-20T02:46:35.313Z,23.09
2016-10-20T02:46:52.025Z,23.22
2016-10-20T02:47:08.747Z,23.24
2016-10-20T02:47:25.482Z,23.27
2016-10-20T02:47:42.247Z,23.24
2016-10-20T02:47:58.964Z,23.22
2016-10-20T02:48:15.684Z,23.14
2016-10-20T02:48:32.398Z,22.99
2016-10-20T02:48:49.126Z,23.12
2016-10-20T02:49:05.881Z,22.97
2016-10-20T02:49:22.592Z,22.99
2016-10-20T02:49:39.316Z,23.08
2016-10-20T02:49:56.569Z,23.07
2016-10-20T02:50:13.274Z,23.09
2016-10-20T02:50:29.985Z,23.18
2016-10-20T02:50:46.699Z,23.2
2016-10-20T02:51:03.455Z,23.07
2016-10-20T02:51:20.172Z,23.12
2016-10-20T02:51:36.892Z,23.22
2016-10-20T02:51:54.123Z,23.22
2016-10-20T02:52:10.869Z,23.23
2016-10-20T02:52:27.787Z,23.27
2016-10-20T02:52:44.519Z,23.31
2016-10-20T02:53:01.234Z,23.31
2016-10-20T02:53:17.960Z,23.33
2016-10-20T02:53:34.689Z,23.49
2016-10-20T02:53:51.417Z,23.45
2016-10-20T02:54:08.135Z,23.35
2016-10-20T02:54:24.846Z,23.42
2016-10-20T02:54:41.589Z,23.42
2016-10-20T02:54:58.294Z,23.48
2016-10-20T02:55:29.505Z,23.31
2016-10-20T02:55:46.268Z,23.42
2016-10-20T02:56:03.001Z,23.29
2016-10-20T02:56:19.750Z,23.33
2016-10-20T02:56:36.520Z,23.34
2016-10-20T02:56:53.225Z,23.22
2016-10-20T02:57:10.167Z,23.2
2016-10-20T02:57:26.864Z,23.22
2016-10-20T02:57:43.554Z,23.05
2016-10-20T02:58:00.320Z,23.09
2016-10-20T02:58:17.054Z,22.96
2016-10-20T02:58:33.779Z,23.11
2016-10-20T02:58:50.531Z,23.04
2016-10-20T02:59:07.289Z,23.11
2016-10-20T02:59:24.508Z,23.12
2016-10-20T02:59:41.221Z,23.07
2016-10-20T02:59:57.914Z,22.97
2016-10-20T03:00:14.645Z,22.99
2016-10-20T03:00:31.362Z,23.05
2016-10-20T03:00:48.105Z,22.84
2016-10-20T03:01:05.876Z,22.99
2016-10-20T03:01:22.599Z,22.87
2016-10-20T03:01:39.318Z,22.83
2016-10-20T03:01:56.147Z,22.63
2016-10-20T03:02:12.886Z,22.68
2016-10-20T03:02:29.642Z,22.62
2016-10-20T03:02:46.404Z,22.68
2016-10-20T03:03:03.125Z,22.72
2016-10-20T03:03:19.876Z,22.75
2016-10-20T03:03:36.595Z,22.9
2016-10-20T03:03:53.297Z,22.87
2016-10-20T03:04:10.019Z,22.89
2016-10-20T03:04:27.256Z,22.94
2016-10-20T03:04:44.047Z,22.94
2016-10-20T03:05:00.767Z,22.72
2016-10-20T03:05:17.502Z,22.72
2016-10-20T03:05:34.244Z,22.74
2016-10-20T03:05:50.954Z,22.69
2016-10-20T03:06:07.669Z,22.74
2016-10-20T03:06:24.402Z,22.86
2016-10-20T03:06:41.133Z,22.81
2016-10-20T03:06:57.863Z,22.81
2016-10-20T03:07:14.579Z,22.86
2016-10-20T03:07:31.809Z,22.93
2016-10-20T03:07:48.543Z,22.89
2016-10-20T03:08:05.237Z,23.02
2016-10-20T03:08:22.478Z,22.92
2016-10-20T03:08:39.203Z,23
2016-10-20T03:08:55.917Z,22.97
2016-10-20T03:09:12.652Z,23.11
2016-10-20T03:09:29.379Z,23.02
2016-10-20T03:09:46.104Z,22.96
2016-10-20T03:10:34.094Z,22.89
2016-10-20T03:10:50.859Z,22.78
2016-10-20T03:11:07.577Z,22.93
2016-10-20T03:11:24.296Z,22.84
2016-10-20T03:11:41.037Z,22.86
2016-10-20T03:11:57.857Z,22.74
2016-10-20T03:12:15.090Z,22.81
2016-10-20T03:12:31.800Z,22.74
2016-10-20T03:12:48.527Z,22.63
2016-10-20T03:13:05.291Z,22.69
2016-10-20T03:13:22.002Z,22.74
2016-10-20T03:13:38.751Z,22.68
2016-10-20T03:13:55.481Z,22.69
2016-10-20T03:14:12.210Z,22.63
2016-10-20T03:14:28.996Z,22.72
2016-10-20T03:14:45.701Z,22.72
2016-10-20T03:15:02.426Z,22.69
2016-10-20T03:15:19.166Z,22.63
2016-10-20T03:15:35.887Z,22.56
2016-10-20T03:15:52.604Z,22.71
2016-10-20T03:16:09.338Z,22.65
2016-10-20T03:16:26.038Z,22.65
2016-10-20T03:16:42.751Z,22.67
2016-10-20T03:16:59.966Z,22.78
2016-10-20T03:17:16.646Z,22.75
2016-10-20T03:17:33.355Z,22.75
2016-10-20T03:17:50.084Z,22.71
2016-10-20T03:18:06.799Z,22.68
2016-10-20T03:18:23.512Z,22.67
2016-10-20T03:18:40.215Z,22.74
2016-10-20T03:18:56.932Z,22.71
2016-10-20T03:19:13.631Z,22.71
2016-10-20T03:19:30.362Z,22.63
2016-10-20T03:19:47.095Z,22.69
2016-10-20T03:20:03.811Z,22.67
2016-10-20T03:20:20.525Z,22.56
2016-10-20T03:20:37.226Z,22.53
2016-10-20T03:20:53.983Z,22.67
2016-10-20T03:21:10.732Z,22.54
2016-10-20T03:21:27.422Z,22.57
2016-10-20T03:21:44.197Z,22.65
2016-10-20T03:22:00.909Z,22.62
2016-10-20T03:22:17.623Z,22.62
2016-10-20T03:22:34.338Z,22.6
2016-10-20T03:22:51.036Z,22.69
2016-10-20T03:23:07.752Z,22.38
2016-10-20T03:23:24.469Z,22.56
2016-10-20T03:23:41.197Z,22.34
2016-10-20T03:23:57.883Z,22.32
2016-10-20T03:24:14.786Z,22.32
2016-10-20T03:24:32.048Z,22.44
2016-10-20T03:24:48.736Z,22.24
2016-10-20T03:25:05.452Z,22.24
2016-10-20T03:25:22.166Z,22.31
2016-10-20T03:25:38.898Z,22.28
2016-10-20T03:25:55.656Z,22.31
2016-10-20T03:26:12.366Z,22.31
2016-10-20T03:26:29.098Z,22.31
2016-10-20T03:26:45.792Z,22.38
2016-10-20T03:27:02.619Z,22.39
2016-10-20T03:27:19.337Z,22.46
2016-10-20T03:27:36.609Z,22.38
2016-10-20T03:27:53.334Z,22.54
2016-10-20T03:28:10.090Z,22.47
2016-10-20T03:28:26.829Z,22.42
2016-10-20T03:28:43.568Z,22.47
2016-10-20T03:29:00.296Z,22.37
2016-10-20T03:29:17.054Z,22.42
2016-10-20T03:29:33.843Z,22.42
2016-10-20T03:29:51.093Z,22.52
2016-10-20T03:30:07.831Z,22.56
2016-10-20T03:30:24.628Z,22.49
2016-10-20T03:30:41.345Z,22.53
2016-10-20T03:30:58.839Z,22.59
2016-10-20T03:31:15.622Z,22.62
2016-10-20T03:31:32.367Z,22.62
2016-10-20T03:31:49.105Z,22.52
2016-10-20T03:32:06.062Z,22.6
2016-10-20T03:32:22.834Z,22.52
2016-10-20T03:32:39.629Z,22.59
2016-10-20T03:32:56.368Z,22.49
2016-10-20T03:33:13.163Z,22.28
2016-10-20T03:33:29.902Z,22.19
2016-10-20T03:33:46.684Z,22.13
2016-10-20T03:34:03.455Z,22.16
2016-10-20T03:34:20.700Z,22.24
2016-10-20T03:34:37.442Z,22.3
2016-10-20T03:34:54.167Z,22.35
2016-10-20T03:35:10.944Z,22.38
2016-10-20T03:35:27.697Z,22.26
2016-10-20T03:35:44.435Z,22.28
2016-10-20T03:36:01.188Z,22.3
2016-10-20T03:36:17.947Z,22.31
2016-10-20T03:36:34.706Z,22.3
2016-10-20T03:36:51.469Z,22.26
2016-10-20T03:37:08.443Z,22.22
2016-10-20T03:37:25.728Z,22.31
2016-10-20T03:37:42.499Z,22.02
2016-10-20T03:37:59.295Z,21.97
2016-10-20T03:38:16.047Z,22.01